sensor_id;sensor_type;location;lat;lon;timestamp;P1;durP1;ratioP1;P2;durP2;ratioP2
37873;SDS011;23709;48.078;11.684;2023-12-04T05:22:58;15.35;;;7.20;;
37873;SDS011;23709;48.078;11.684;2023-12-04T05:25:30;17.65;;;8.07;;
37873;SDS011;23709;48.078;11.684;2023-12-04T05:28:11;16.88;;;8.18;;
37873;SDS011;23709;48.078;11.684;2023-12-04T05:30:44;18.00;;;8.38;;
37873;SDS011;23709;48.078;11.684;2023-12-04T05:33:16;20.23;;;7.85;;
37873;SDS011;23709;48.078;11.684;2023-12-04T05:35:49;16.15;;;7.35;;
37873;SDS011;23709;48.078;11.684;2023-12-04T05:38:23;15.80;;;7.65;;
37873;SDS011;23709;48.078;11.684;2023-12-04T05:40:55;14.07;;;7.00;;
37873;SDS011;23709;48.078;11.684;2023-12-04T05:43:27;17.63;;;7.03;;
37873;SDS011;23709;48.078;11.684;2023-12-04T05:46:00;14.07;;;7.30;;
37873;SDS011;23709;48.078;11.684;2023-12-04T05:48:32;19.25;;;7.68;;
37873;SDS011;23709;48.078;11.684;2023-12-04T05:51:05;14.00;;;6.85;;
37873;SDS011;23709;48.078;11.684;2023-12-04T05:53:37;13.43;;;6.47;;
37873;SDS011;23709;48.078;11.684;2023-12-04T05:56:10;17.20;;;6.73;;
37873;SDS011;23709;48.078;11.684;2023-12-04T05:58:42;14.13;;;6.80;;
37873;SDS011;23709;48.078;11.684;2023-12-04T06:01:16;16.20;;;7.70;;
37873;SDS011;23709;48.078;11.684;2023-12-04T06:03:48;15.32;;;7.05;;
37873;SDS011;23709;48.078;11.684;2023-12-04T06:06:20;14.63;;;7.80;;
37873;SDS011;23709;48.078;11.684;2023-12-04T06:08:53;15.20;;;7.10;;
37873;SDS011;23709;48.078;11.684;2023-12-04T06:11:25;13.57;;;6.65;;
37873;SDS011;23709;48.078;11.684;2023-12-04T06:13:57;14.68;;;7.13;;
37873;SDS011;23709;48.078;11.684;2023-12-04T06:16:30;13.97;;;6.50;;
37873;SDS011;23709;48.078;11.684;2023-12-04T06:19:02;15.32;;;7.30;;
37873;SDS011;23709;48.078;11.684;2023-12-04T06:21:36;17.15;;;7.25;;
37873;SDS011;23709;48.078;11.684;2023-12-04T06:24:08;14.13;;;6.32;;
37873;SDS011;23709;48.078;11.684;2023-12-04T06:26:41;15.05;;;6.78;;
37873;SDS011;23709;48.078;11.684;2023-12-04T06:29:15;13.82;;;6.68;;
37873;SDS011;23709;48.078;11.684;2023-12-04T06:31:48;13.35;;;6.82;;
37873;SDS011;23709;48.078;11.684;2023-12-04T06:34:21;11.25;;;5.75;;
37873;SDS011;23709;48.078;11.684;2023-12-04T06:36:53;13.70;;;6.50;;
37873;SDS011;23709;48.078;11.684;2023-12-04T06:39:27;13.82;;;6.82;;
37873;SDS011;23709;48.078;11.684;2023-12-04T06:42:04;18.17;;;7.60;;
37873;SDS011;23709;48.078;11.684;2023-12-04T06:44:38;13.95;;;6.50;;
37873;SDS011;23709;48.078;11.684;2023-12-04T06:47:11;13.50;;;6.57;;
37873;SDS011;23709;48.078;11.684;2023-12-04T06:49:48;14.20;;;6.97;;
37873;SDS011;23709;48.078;11.684;2023-12-04T06:52:21;16.10;;;7.00;;
37873;SDS011;23709;48.078;11.684;2023-12-04T06:54:53;15.40;;;6.97;;
37873;SDS011;23709;48.078;11.684;2023-12-04T06:57:25;14.23;;;6.40;;
37873;SDS011;23709;48.078;11.684;2023-12-04T06:59:58;15.60;;;7.10;;
37873;SDS011;23709;48.078;11.684;2023-12-04T07:02:30;12.63;;;7.13;;
37873;SDS011;23709;48.078;11.684;2023-12-04T07:05:03;17.38;;;7.70;;
37873;SDS011;23709;48.078;11.684;2023-12-04T07:07:36;17.33;;;8.55;;
37873;SDS011;23709;48.078;11.684;2023-12-04T07:10:08;16.10;;;7.50;;
37873;SDS011;23709;48.078;11.684;2023-12-04T07:12:41;21.97;;;7.53;;
37873;SDS011;23709;48.078;11.684;2023-12-04T07:15:13;13.60;;;7.15;;
37873;SDS011;23709;48.078;11.684;2023-12-04T07:17:46;11.18;;;6.13;;
37873;SDS011;23709;48.078;11.684;2023-12-04T07:20:18;14.83;;;7.10;;
37873;SDS011;23709;48.078;11.684;2023-12-04T07:22:51;15.65;;;7.45;;
37873;SDS011;23709;48.078;11.684;2023-12-04T07:25:23;18.58;;;7.97;;
37873;SDS011;23709;48.078;11.684;2023-12-04T07:27:56;19.15;;;9.05;;
37873;SDS011;23709;48.078;11.684;2023-12-04T07:30:29;18.35;;;8.60;;
37873;SDS011;23709;48.078;11.684;2023-12-04T07:33:02;21.17;;;9.23;;
37873;SDS011;23709;48.078;11.684;2023-12-04T07:35:35;24.60;;;10.15;;
37873;SDS011;23709;48.078;11.684;2023-12-04T07:38:07;23.20;;;9.98;;
37873;SDS011;23709;48.078;11.684;2023-12-04T07:40:40;24.00;;;10.57;;
37873;SDS011;23709;48.078;11.684;2023-12-04T07:43:12;26.90;;;10.23;;
37873;SDS011;23709;48.078;11.684;2023-12-04T07:45:46;26.02;;;12.05;;
37873;SDS011;23709;48.078;11.684;2023-12-04T07:48:18;18.20;;;9.07;;
37873;SDS011;23709;48.078;11.684;2023-12-04T07:50:51;19.23;;;9.98;;
37873;SDS011;23709;48.078;11.684;2023-12-04T07:53:23;29.38;;;10.65;;
37873;SDS011;23709;48.078;11.684;2023-12-04T07:55:56;20.50;;;10.63;;
37873;SDS011;23709;48.078;11.684;2023-12-04T07:58:28;20.67;;;9.20;;
37873;SDS011;23709;48.078;11.684;2023-12-04T08:03:34;19.67;;;8.70;;
37873;SDS011;23709;48.078;11.684;2023-12-04T08:06:07;23.70;;;10.23;;
37873;SDS011;23709;48.078;11.684;2023-12-04T14:49:14;49.67;;;26.23;;
37873;SDS011;23709;48.078;11.684;2023-12-04T14:51:47;57.72;;;25.60;;
37873;SDS011;23709;48.078;11.684;2023-12-04T14:54:20;52.10;;;26.77;;
37873;SDS011;23709;48.078;11.684;2023-12-04T14:56:54;52.38;;;27.23;;
37873;SDS011;23709;48.078;11.684;2023-12-04T14:59:45;51.97;;;28.45;;
37873;SDS011;23709;48.078;11.684;2023-12-04T15:02:20;52.78;;;28.15;;
37873;SDS011;23709;48.078;11.684;2023-12-04T15:05:12;54.42;;;29.90;;
37873;SDS011;23709;48.078;11.684;2023-12-04T15:08:26;50.60;;;28.17;;
37873;SDS011;23709;48.078;11.684;2023-12-04T15:11:20;49.03;;;27.27;;
37873;SDS011;23709;48.078;11.684;2023-12-04T15:14:09;58.20;;;29.13;;
37873;SDS011;23709;48.078;11.684;2023-12-04T15:17:05;56.03;;;27.83;;
37873;SDS011;23709;48.078;11.684;2023-12-04T15:20:04;48.78;;;25.58;;
37873;SDS011;23709;48.078;11.684;2023-12-04T15:22:53;54.33;;;28.73;;
37873;SDS011;23709;48.078;11.684;2023-12-04T15:25:27;60.42;;;31.77;;
37873;SDS011;23709;48.078;11.684;2023-12-04T15:28:02;62.65;;;33.30;;
37873;SDS011;23709;48.078;11.684;2023-12-04T15:30:41;73.15;;;32.75;;
37873;SDS011;23709;48.078;11.684;2023-12-04T15:33:15;68.82;;;33.28;;
37873;SDS011;23709;48.078;11.684;2023-12-04T15:38:20;53.28;;;27.52;;
37873;SDS011;23709;48.078;11.684;2023-12-04T15:41:08;56.28;;;28.92;;
37873;SDS011;23709;48.078;11.684;2023-12-04T15:43:41;54.25;;;28.25;;
37873;SDS011;23709;48.078;11.684;2023-12-04T15:46:16;52.67;;;27.65;;
37873;SDS011;23709;48.078;11.684;2023-12-04T15:48:53;62.35;;;30.27;;
37873;SDS011;23709;48.078;11.684;2023-12-04T15:51:26;53.30;;;29.45;;
37873;SDS011;23709;48.078;11.684;2023-12-04T15:54:03;62.03;;;30.10;;
37873;SDS011;23709;48.078;11.684;2023-12-04T15:59:08;77.82;;;34.20;;
37873;SDS011;23709;48.078;11.684;2023-12-04T16:01:40;72.32;;;35.40;;
37873;SDS011;23709;48.078;11.684;2023-12-04T16:04:13;75.67;;;37.93;;
37873;SDS011;23709;48.078;11.684;2023-12-04T16:06:49;65.97;;;34.13;;
37873;SDS011;23709;48.078;11.684;2023-12-04T16:09:22;71.10;;;34.10;;
37873;SDS011;23709;48.078;11.684;2023-12-04T16:11:54;64.65;;;32.42;;
37873;SDS011;23709;48.078;11.684;2023-12-04T16:14:26;71.15;;;34.33;;
37873;SDS011;23709;48.078;11.684;2023-12-04T16:16:58;66.22;;;33.78;;
37873;SDS011;23709;48.078;11.684;2023-12-04T16:19:31;59.33;;;30.73;;
37873;SDS011;23709;48.078;11.684;2023-12-04T16:22:06;59.08;;;29.92;;
37873;SDS011;23709;48.078;11.684;2023-12-04T16:24:39;67.38;;;32.45;;
37873;SDS011;23709;48.078;11.684;2023-12-04T16:27:11;57.35;;;29.73;;
37873;SDS011;23709;48.078;11.684;2023-12-04T16:29:44;69.15;;;35.40;;
37873;SDS011;23709;48.078;11.684;2023-12-04T16:32:16;65.68;;;33.05;;
37873;SDS011;23709;48.078;11.684;2023-12-04T16:34:48;61.92;;;31.60;;
37873;SDS011;23709;48.078;11.684;2023-12-04T16:37:24;66.38;;;34.28;;
37873;SDS011;23709;48.078;11.684;2023-12-04T16:39:59;66.05;;;33.45;;
37873;SDS011;23709;48.078;11.684;2023-12-04T16:42:31;66.37;;;33.63;;
37873;SDS011;23709;48.078;11.684;2023-12-04T16:45:04;69.50;;;35.05;;
37873;SDS011;23709;48.078;11.684;2023-12-04T16:47:39;72.78;;;36.95;;
37873;SDS011;23709;48.078;11.684;2023-12-04T16:50:15;81.78;;;40.00;;
37873;SDS011;23709;48.078;11.684;2023-12-04T16:52:50;83.97;;;40.38;;
37873;SDS011;23709;48.078;11.684;2023-12-04T16:55:29;80.60;;;41.13;;
37873;SDS011;23709;48.078;11.684;2023-12-04T16:58:01;83.55;;;40.67;;
37873;SDS011;23709;48.078;11.684;2023-12-04T17:00:39;83.78;;;42.10;;
37873;SDS011;23709;48.078;11.684;2023-12-04T17:03:12;91.03;;;44.42;;
37873;SDS011;23709;48.078;11.684;2023-12-04T17:05:46;77.28;;;40.15;;
37873;SDS011;23709;48.078;11.684;2023-12-04T17:08:22;87.07;;;40.78;;
37873;SDS011;23709;48.078;11.684;2023-12-04T17:10:54;84.63;;;41.07;;
37873;SDS011;23709;48.078;11.684;2023-12-04T17:13:27;84.43;;;40.97;;
37873;SDS011;23709;48.078;11.684;2023-12-04T17:15:59;76.50;;;37.17;;
37873;SDS011;23709;48.078;11.684;2023-12-04T17:18:32;70.07;;;35.08;;
37873;SDS011;23709;48.078;11.684;2023-12-04T17:21:07;71.32;;;34.28;;
37873;SDS011;23709;48.078;11.684;2023-12-04T17:23:40;68.97;;;35.85;;
37873;SDS011;23709;48.078;11.684;2023-12-04T17:26:13;69.55;;;34.80;;
37873;SDS011;23709;48.078;11.684;2023-12-04T17:28:46;72.53;;;36.00;;
37873;SDS011;23709;48.078;11.684;2023-12-04T17:31:18;75.72;;;37.28;;
37873;SDS011;23709;48.078;11.684;2023-12-04T17:33:51;70.68;;;34.30;;
37873;SDS011;23709;48.078;11.684;2023-12-04T17:36:25;70.38;;;35.22;;
37873;SDS011;23709;48.078;11.684;2023-12-04T17:39:01;66.88;;;33.47;;
37873;SDS011;23709;48.078;11.684;2023-12-04T17:41:35;142.73;;;53.72;;
37873;SDS011;23709;48.078;11.684;2023-12-04T17:44:07;80.88;;;36.45;;
37873;SDS011;23709;48.078;11.684;2023-12-04T17:46:42;152.40;;;63.00;;
37873;SDS011;23709;48.078;11.684;2023-12-04T17:49:18;71.32;;;32.03;;
37873;SDS011;23709;48.078;11.684;2023-12-04T17:51:55;69.32;;;32.20;;
37873;SDS011;23709;48.078;11.684;2023-12-04T17:54:28;71.25;;;34.47;;
37873;SDS011;23709;48.078;11.684;2023-12-04T17:57:01;62.22;;;29.67;;
37873;SDS011;23709;48.078;11.684;2023-12-04T17:59:34;74.93;;;31.80;;
37873;SDS011;23709;48.078;11.684;2023-12-04T18:02:07;56.22;;;30.05;;
37873;SDS011;23709;48.078;11.684;2023-12-04T18:04:44;64.40;;;31.13;;
37873;SDS011;23709;48.078;11.684;2023-12-04T18:07:20;52.75;;;26.45;;
37873;SDS011;23709;48.078;11.684;2023-12-04T18:09:54;59.55;;;27.65;;
37873;SDS011;23709;48.078;11.684;2023-12-04T18:12:27;49.75;;;24.77;;
37873;SDS011;23709;48.078;11.684;2023-12-04T18:15:00;50.95;;;24.48;;
37873;SDS011;23709;48.078;11.684;2023-12-04T18:17:35;46.15;;;22.75;;
37873;SDS011;23709;48.078;11.684;2023-12-04T18:20:14;44.85;;;22.33;;
37873;SDS011;23709;48.078;11.684;2023-12-04T18:22:49;44.70;;;22.63;;
37873;SDS011;23709;48.078;11.684;2023-12-04T18:25:27;60.05;;;27.75;;
37873;SDS011;23709;48.078;11.684;2023-12-04T18:27:59;63.88;;;28.90;;
37873;SDS011;23709;48.078;11.684;2023-12-04T18:30:33;52.58;;;28.80;;
37873;SDS011;23709;48.078;11.684;2023-12-04T18:33:08;53.55;;;28.25;;
37873;SDS011;23709;48.078;11.684;2023-12-04T18:35:41;58.80;;;28.58;;
37873;SDS011;23709;48.078;11.684;2023-12-04T18:38:19;49.83;;;27.27;;
37873;SDS011;23709;48.078;11.684;2023-12-04T18:41:01;49.90;;;25.17;;
37873;SDS011;23709;48.078;11.684;2023-12-04T18:43:35;47.78;;;23.98;;
37873;SDS011;23709;48.078;11.684;2023-12-04T18:46:07;53.42;;;24.40;;
37873;SDS011;23709;48.078;11.684;2023-12-04T18:48:42;43.42;;;23.23;;
37873;SDS011;23709;48.078;11.684;2023-12-04T18:51:15;40.15;;;21.98;;
37873;SDS011;23709;48.078;11.684;2023-12-04T18:53:48;41.13;;;22.30;;
37873;SDS011;23709;48.078;11.684;2023-12-04T18:56:21;46.60;;;22.50;;
37873;SDS011;23709;48.078;11.684;2023-12-04T18:58:53;44.37;;;21.50;;
37873;SDS011;23709;48.078;11.684;2023-12-04T19:01:26;37.28;;;21.67;;
37873;SDS011;23709;48.078;11.684;2023-12-04T19:03:59;39.20;;;19.50;;
37873;SDS011;23709;48.078;11.684;2023-12-04T19:06:32;36.15;;;18.98;;
37873;SDS011;23709;48.078;11.684;2023-12-04T19:09:05;37.45;;;20.88;;
37873;SDS011;23709;48.078;11.684;2023-12-04T19:11:39;40.95;;;20.23;;
37873;SDS011;23709;48.078;11.684;2023-12-04T19:14:12;44.45;;;22.08;;
37873;SDS011;23709;48.078;11.684;2023-12-04T19:16:45;54.10;;;27.15;;
37873;SDS011;23709;48.078;11.684;2023-12-04T19:19:18;47.07;;;23.67;;
37873;SDS011;23709;48.078;11.684;2023-12-04T19:21:51;45.80;;;23.80;;
37873;SDS011;23709;48.078;11.684;2023-12-04T19:24:23;40.72;;;21.13;;
37873;SDS011;23709;48.078;11.684;2023-12-04T19:26:57;41.53;;;22.10;;
37873;SDS011;23709;48.078;11.684;2023-12-04T19:29:30;42.30;;;22.27;;
37873;SDS011;23709;48.078;11.684;2023-12-04T19:32:03;42.47;;;22.05;;
37873;SDS011;23709;48.078;11.684;2023-12-04T19:34:36;37.67;;;20.02;;
37873;SDS011;23709;48.078;11.684;2023-12-04T19:37:08;37.83;;;20.08;;
37873;SDS011;23709;48.078;11.684;2023-12-04T19:39:41;38.60;;;21.17;;
37873;SDS011;23709;48.078;11.684;2023-12-04T19:42:15;45.97;;;22.25;;
37873;SDS011;23709;48.078;11.684;2023-12-04T19:44:47;46.00;;;21.33;;
37873;SDS011;23709;48.078;11.684;2023-12-04T19:47:21;40.28;;;20.88;;
37873;SDS011;23709;48.078;11.684;2023-12-04T19:49:53;43.70;;;21.25;;
37873;SDS011;23709;48.078;11.684;2023-12-04T19:52:25;39.03;;;21.52;;
37873;SDS011;23709;48.078;11.684;2023-12-04T19:57:32;40.10;;;22.02;;
37873;SDS011;23709;48.078;11.684;2023-12-04T20:00:04;45.20;;;23.47;;
37873;SDS011;23709;48.078;11.684;2023-12-04T20:02:45;46.53;;;23.35;;
37873;SDS011;23709;48.078;11.684;2023-12-04T20:05:18;47.40;;;23.05;;
37873;SDS011;23709;48.078;11.684;2023-12-04T20:07:51;47.90;;;24.15;;
37873;SDS011;23709;48.078;11.684;2023-12-04T20:10:24;45.53;;;25.05;;
37873;SDS011;23709;48.078;11.684;2023-12-04T20:12:58;46.55;;;24.30;;
37873;SDS011;23709;48.078;11.684;2023-12-04T20:15:31;50.88;;;25.23;;
37873;SDS011;23709;48.078;11.684;2023-12-04T20:18:04;41.30;;;23.33;;
37873;SDS011;23709;48.078;11.684;2023-12-04T20:20:37;42.10;;;21.25;;
37873;SDS011;23709;48.078;11.684;2023-12-04T20:23:10;37.70;;;20.17;;
37873;SDS011;23709;48.078;11.684;2023-12-04T20:25:43;41.33;;;21.10;;
37873;SDS011;23709;48.078;11.684;2023-12-04T20:28:16;42.70;;;20.92;;
37873;SDS011;23709;48.078;11.684;2023-12-04T20:30:52;38.83;;;19.83;;
37873;SDS011;23709;48.078;11.684;2023-12-04T20:33:25;41.53;;;21.13;;
37873;SDS011;23709;48.078;11.684;2023-12-04T20:35:58;39.50;;;20.08;;
37873;SDS011;23709;48.078;11.684;2023-12-04T20:38:36;36.92;;;20.25;;
